Time;durP1;ratioP1;P1;durP2;ratioP2;P2;SDS_P1;SDS_P2;PMS_P1;PMS_P2;Temp;Humidity;BMP_temperature;BMP_pressure;BME280_temperature;BME280_humidity;BME280_pressure;Samples;Min_cycle;Max_cycle;Signal;HPM_P1;HPM_P2
2022/08/16 00:01:13;;;;;;;10.47;9.37;;;18.40;70.80;;;;;;6185717;23;20414;-82
2022/08/16 00:03:39;;;;;;;10.23;9.10;;;18.20;71.10;;;;;;6185061;23;20436;-82
2022/08/16 00:06:06;;;;;;;14.70;11.13;;;18.20;71.70;;;;;;6185138;23;20436;-84
2022/08/16 00:08:33;;;;;;;13.30;11.90;;;18.30;72.50;;;;;;6185865;23;20433;-83
2022/08/16 00:11:00;;;;;;;14.00;11.60;;;18.30;72.20;;;;;;6185282;23;20413;-81
2022/08/16 00:13:27;;;;;;;14.60;13.17;;;18.30;71.20;;;;;;6185361;23;20433;-83
2022/08/16 00:15:53;;;;;;;10.13;8.73;;;18.30;72.10;;;;;;6186282;23;20422;-82
2022/08/16 00:18:22;;;;;;;12.30;10.50;;;18.30;70.60;;;;;;6185530;23;20417;-82
2022/08/16 00:20:49;;;;;;;10.83;9.53;;;18.40;70.80;;;;;;6185354;23;20910;-83
2022/08/16 00:23:16;;;;;;;12.30;9.30;;;18.30;69.90;;;;;;6185272;23;20948;-82
2022/08/16 00:25:43;;;;;;;15.30;10.20;;;18.40;70.10;;;;;;6185832;23;20419;-82
2022/08/16 00:28:10;;;;;;;13.70;9.70;;;18.30;70.00;;;;;;6185570;23;20437;-82
2022/08/16 00:30:37;;;;;;;11.73;9.10;;;18.40;70.10;;;;;;6185837;23;20415;-82
2022/08/16 00:33:04;;;;;;;9.70;8.03;;;18.40;68.60;;;;;;6186201;23;20420;-83
2022/08/16 00:35:35;;;;;;;10.83;8.83;;;18.30;68.60;;;;;;6185697;23;20415;-82
2022/08/16 00:38:02;;;;;;;11.97;10.77;;;18.30;68.50;;;;;;6185745;23;21001;-82
2022/08/16 00:40:34;;;;;;;13.20;12.00;;;18.10;70.90;;;;;;6186772;23;20421;-82
2022/08/16 00:43:03;;;;;;;12.70;11.50;;;18.10;71.60;;;;;;6185472;23;20399;-82
2022/08/16 00:45:36;;;;;;;13.77;12.47;;;18.00;72.70;;;;;;6185763;23;20418;-82
2022/08/16 00:48:04;;;;;;;16.40;15.00;;;17.90;72.50;;;;;;6187870;23;20397;-83
2022/08/16 00:50:36;;;;;;;21.70;19.90;;;17.90;74.80;;;;;;6187776;23;20415;-82
2022/08/16 00:53:03;;;;;;;23.03;21.40;;;17.80;76.20;;;;;;6187961;23;20994;-84
2022/08/16 00:55:31;;;;;;;18.20;16.57;;;17.60;78.40;;;;;;6187789;23;20424;-82
2022/08/16 00:57:58;;;;;;;20.23;18.53;;;17.60;77.20;;;;;;6187977;23;20419;-83
2022/08/16 01:00:27;;;;;;;18.07;16.50;;;17.50;78.10;;;;;;6187624;23;20422;-84
2022/08/16 01:02:56;;;;;;;25.10;23.47;;;17.40;76.30;;;;;;6188893;23;20416;-82
2022/08/16 01:05:24;;;;;;;16.67;15.37;;;17.40;79.00;;;;;;6187924;23;20412;-82
2022/08/16 01:07:53;;;;;;;19.23;17.60;;;17.10;77.10;;;;;;6187852;23;20779;-82
2022/08/16 01:10:20;;;;;;;21.27;19.60;;;17.10;77.40;;;;;;6188234;23;20444;-82
2022/08/16 01:12:47;;;;;;;26.57;24.67;;;17.00;78.50;;;;;;6187542;23;20439;-81
2022/08/16 01:15:15;;;;;;;40.53;38.43;;;16.70;79.80;;;;;;6187068;23;20414;-82
2022/08/16 01:17:45;;;;;;;77.47;74.17;;;16.70;82.10;;;;;;6187126;23;20423;-81
2022/08/16 01:20:14;;;;;;;101.27;97.17;;;16.50;85.10;;;;;;6187405;23;20403;-83
2022/08/16 01:22:50;;;;;;;171.10;164.50;;;16.50;87.70;;;;;;6187621;23;20419;-82
2022/08/16 01:25:22;;;;;;;192.83;185.63;;;16.40;91.10;;;;;;6187115;23;20408;-81
2022/08/16 01:27:52;;;;;;;251.87;242.17;;;16.50;92.10;;;;;;6187253;23;20430;-82
2022/08/16 01:30:23;;;;;;;258.00;248.30;;;16.40;93.10;;;;;;6186798;23;20423;-82
2022/08/16 01:32:51;;;;;;;131.60;126.70;;;16.40;93.60;;;;;;6186839;23;20430;-81
2022/08/16 01:35:22;;;;;;;165.00;158.73;;;16.30;90.80;;;;;;6186823;23;20905;-81
2022/08/16 01:37:56;;;;;;;143.77;138.37;;;16.30;92.50;;;;;;6187571;23;20399;-82
2022/08/16 01:40:27;;;;;;;174.53;168.00;;;16.10;91.20;;;;;;6186746;23;20402;-82
2022/08/16 01:42:55;;;;;;;169.60;163.00;;;16.00;92.20;;;;;;6187347;23;20403;-81
2022/08/16 01:45:23;;;;;;;194.63;187.53;;;16.00;92.60;;;;;;6186946;23;20422;-82
2022/08/16 01:47:52;;;;;;;250.03;240.67;;;15.80;93.40;;;;;;6187089;23;20417;-83
2022/08/16 01:50:21;;;;;;;312.53;300.37;;;15.90;95.50;;;;;;6186813;23;20436;-81
2022/08/16 01:52:48;;;;;;;314.57;301.97;;;15.80;97.20;;;;;;6186683;23;20409;-82
2022/08/16 01:55:17;;;;;;;327.33;313.87;;;15.80;98.10;;;;;;6186826;23;20517;-82
2022/08/16 01:57:45;;;;;;;313.47;300.93;;;15.80;99.30;;;;;;6186903;23;20413;-81
2022/08/16 02:00:14;;;;;;;290.27;278.53;;;15.80;99.70;;;;;;6186357;23;20411;-81
2022/08/16 02:02:41;;;;;;;325.13;311.73;;;15.70;99.90;;;;;;6186664;23;20804;-81
2022/08/16 02:05:08;;;;;;;330.83;317.47;;;15.80;99.90;;;;;;6186170;23;20434;-82
2022/08/16 02:07:35;;;;;;;336.37;323.17;;;15.80;99.90;;;;;;6187628;23;20943;-82
2022/08/16 02:10:02;;;;;;;331.53;317.97;;;15.60;99.90;;;;;;6187866;23;20773;-82
2022/08/16 02:12:31;;;;;;;325.57;312.10;;;15.70;99.90;;;;;;6187032;23;20923;-84
2022/08/16 02:15:03;;;;;;;424.33;406.97;;;15.70;99.90;;;;;;6187115;23;20461;-82
2022/08/16 02:17:31;;;;;;;445.73;426.33;;;15.70;99.90;;;;;;6188146;23;20789;-81
2022/08/16 02:19:57;;;;;;;553.90;528.37;;;15.70;99.90;;;;;;6186855;23;20416;-83
2022/08/16 02:22:25;;;;;;;525.30;501.93;;;15.70;99.90;;;;;;6187043;23;20414;-81
2022/08/16 02:24:52;;;;;;;482.07;460.87;;;15.70;99.90;;;;;;6185947;23;20435;-82
2022/08/16 02:27:18;;;;;;;445.97;427.27;;;15.60;99.90;;;;;;6186485;23;20419;-81
2022/08/16 02:29:45;;;;;;;528.47;504.60;;;15.60;99.90;;;;;;6185922;23;20449;-81
2022/08/16 02:32:16;;;;;;;508.87;486.40;;;15.60;99.90;;;;;;6186192;23;20414;-83
2022/08/16 02:34:43;;;;;;;532.60;508.80;;;15.60;99.90;;;;;;6185887;23;20434;-82
2022/08/16 02:37:10;;;;;;;525.27;502.03;;;15.60;99.90;;;;;;6186604;23;20418;-82
2022/08/16 02:39:37;;;;;;;496.67;475.47;;;15.70;99.90;;;;;;6186418;23;20410;-81
2022/08/16 02:42:05;;;;;;;479.97;459.87;;;15.70;99.90;;;;;;6186042;23;20429;-82
2022/08/16 02:44:32;;;;;;;473.43;453.83;;;15.60;99.90;;;;;;6185868;23;20435;-81
2022/08/16 02:46:59;;;;;;;505.83;484.13;;;15.60;99.90;;;;;;6187698;23;20421;-83
2022/08/16 02:49:27;;;;;;;488.73;467.13;;;15.60;99.90;;;;;;6187620;23;20456;-82
2022/08/16 02:51:53;;;;;;;432.40;415.00;;;15.60;99.90;;;;;;6187674;23;20505;-84
2022/08/16 02:54:20;;;;;;;491.93;471.03;;;15.60;99.90;;;;;;6187974;23;20437;-82
2022/08/16 02:56:47;;;;;;;565.13;539.53;;;15.60;99.90;;;;;;6188786;23;20414;-83
2022/08/16 02:59:14;;;;;;;478.97;459.00;;;15.50;99.90;;;;;;6186379;23;20453;-82
2022/08/16 03:01:41;;;;;;;468.10;448.60;;;15.60;99.90;;;;;;6186614;23;20464;-81
2022/08/16 03:04:08;;;;;;;559.20;533.90;;;15.70;99.90;;;;;;6187184;23;20743;-83
2022/08/16 03:06:36;;;;;;;537.17;513.87;;;15.50;99.90;;;;;;6186517;23;20421;-82
2022/08/16 03:09:03;;;;;;;533.43;509.77;;;15.60;99.90;;;;;;6186226;23;20437;-82
2022/08/16 03:11:31;;;;;;;535.60;511.87;;;15.50;99.90;;;;;;6188356;23;20419;-82
2022/08/16 03:13:59;;;;;;;507.47;486.27;;;15.40;99.90;;;;;;6187036;23;20461;-82
2022/08/16 03:16:26;;;;;;;535.90;512.60;;;15.40;99.90;;;;;;6187052;23;20457;-82
2022/08/16 03:18:53;;;;;;;568.47;543.37;;;15.40;99.90;;;;;;6186093;23;20911;-83
2022/08/16 03:21:19;;;;;;;550.57;525.60;;;15.50;99.90;;;;;;6186842;23;20468;-82
2022/08/16 03:23:48;;;;;;;490.43;469.10;;;15.40;99.90;;;;;;6186464;23;20434;-81
2022/08/16 03:26:15;;;;;;;511.63;489.47;;;15.40;99.90;;;;;;6185139;23;20415;-83
2022/08/16 03:28:42;;;;;;;491.33;470.53;;;15.50;99.90;;;;;;6185687;23;20429;-82
2022/08/16 03:31:09;;;;;;;494.47;472.77;;;15.50;99.90;;;;;;6185870;23;20416;-83
2022/08/16 03:33:36;;;;;;;577.23;550.47;;;15.40;99.90;;;;;;6186537;23;20777;-82
2022/08/16 03:36:05;;;;;;;524.13;500.50;;;15.40;99.90;;;;;;6185973;23;20895;-82
2022/08/16 03:38:32;;;;;;;586.63;559.57;;;15.30;99.90;;;;;;6185865;23;20415;-83
2022/08/16 03:41:01;;;;;;;652.63;621.73;;;15.40;99.90;;;;;;6186405;23;20779;-83
2022/08/16 03:43:29;;;;;;;672.83;640.90;;;15.30;99.90;;;;;;6186464;23;20468;-82
2022/08/16 03:45:57;;;;;;;710.07;674.57;;;15.30;99.90;;;;;;6186337;23;20468;-82
2022/08/16 03:48:27;;;;;;;670.43;637.43;;;15.30;99.90;;;;;;6187607;23;20417;-83
2022/08/16 03:50:54;;;;;;;568.67;543.23;;;15.40;99.90;;;;;;6186016;23;20437;-82
2022/08/16 03:53:21;;;;;;;480.80;459.57;;;15.40;99.90;;;;;;6185718;23;20456;-81
2022/08/16 03:55:47;;;;;;;397.87;381.77;;;15.40;99.90;;;;;;6185128;23;20904;-82
2022/08/16 03:58:16;;;;;;;416.57;400.40;;;15.20;99.90;;;;;;6185444;23;20416;-83
2022/08/16 04:00:44;;;;;;;425.13;407.13;;;15.20;99.90;;;;;;6185998;23;20413;-83
2022/08/16 04:03:10;;;;;;;510.87;487.23;;;15.10;99.90;;;;;;6185554;23;20437;-82
2022/08/16 04:05:40;;;;;;;606.27;576.90;;;15.10;99.90;;;;;;6185220;23;20417;-82
2022/08/16 04:08:07;;;;;;;553.13;526.37;;;15.20;99.90;;;;;;6185188;23;20409;-83
2022/08/16 04:10:34;;;;;;;573.80;545.20;;;15.20;99.90;;;;;;6186278;23;20444;-83
2022/08/16 04:13:01;;;;;;;561.30;533.87;;;15.10;99.90;;;;;;6186124;23;20970;-82
2022/08/16 04:15:29;;;;;;;599.23;569.33;;;15.10;99.90;;;;;;6186797;23;20413;-84
2022/08/16 04:17:56;;;;;;;577.90;549.13;;;15.10;99.90;;;;;;6189893;23;20413;-84
2022/08/16 04:20:24;;;;;;;515.07;491.27;;;15.00;99.90;;;;;;6199390;23;20413;-83
2022/08/16 04:22:51;;;;;;;509.93;486.07;;;15.10;99.90;;;;;;6189052;23;20508;-84
2022/08/16 04:25:18;;;;;;;443.20;423.70;;;14.90;99.90;;;;;;6189192;23;20413;-82
2022/08/16 04:27:45;;;;;;;406.73;389.30;;;14.90;99.90;;;;;;6189450;23;20425;-82
2022/08/16 04:30:15;;;;;;;415.07;397.43;;;14.90;99.90;;;;;;6189289;23;21003;-84
2022/08/16 04:32:44;;;;;;;485.00;462.67;;;14.90;99.90;;;;;;6190041;23;20800;-84
2022/08/16 04:35:15;;;;;;;494.80;471.80;;;14.90;99.90;;;;;;6189062;23;20433;-84
2022/08/16 04:37:42;;;;;;;484.13;461.83;;;14.90;99.90;;;;;;6190608;23;20452;-83
2022/08/16 04:40:11;;;;;;;480.70;458.73;;;14.90;99.90;;;;;;6190085;23;20427;-83
2022/08/16 04:42:39;;;;;;;499.70;476.13;;;15.00;99.90;;;;;;6199963;23;20918;-84
2022/08/16 04:45:07;;;;;;;526.80;501.40;;;15.00;99.90;;;;;;6189598;23;20501;-83
2022/08/16 04:47:34;;;;;;;519.23;493.50;;;15.10;99.90;;;;;;6190337;23;20413;-84
2022/08/16 04:50:05;;;;;;;491.97;468.53;;;15.10;99.90;;;;;;6190093;23;21025;-82
2022/08/16 04:52:31;;;;;;;463.30;442.03;;;15.10;99.90;;;;;;6190142;23;20747;-83
2022/08/16 04:54:58;;;;;;;438.63;419.03;;;15.20;99.90;;;;;;6189807;23;20967;-83
2022/08/16 04:57:25;;;;;;;444.90;424.53;;;15.20;99.90;;;;;;6189126;23;20413;-83
2022/08/16 04:59:52;;;;;;;448.13;427.43;;;15.30;99.90;;;;;;6189580;23;20410;-85
2022/08/16 05:02:18;;;;;;;445.80;425.00;;;15.40;99.90;;;;;;6191113;23;20458;-83
2022/08/16 05:04:45;;;;;;;421.27;402.43;;;15.40;99.90;;;;;;6189111;23;20439;-84
2022/08/16 05:07:13;;;;;;;413.40;394.70;;;15.50;99.90;;;;;;6190683;23;20409;-85
2022/08/16 05:09:40;;;;;;;398.53;380.63;;;15.40;99.90;;;;;;6191335;23;20497;-85
2022/08/16 05:12:07;;;;;;;383.47;366.67;;;15.60;99.90;;;;;;6190248;23;20752;-85
2022/08/16 05:14:34;;;;;;;375.47;357.90;;;15.60;99.90;;;;;;6189953;23;20434;-84
2022/08/16 05:17:00;;;;;;;374.63;358.13;;;15.70;99.90;;;;;;6190346;23;20420;-84
2022/08/16 05:19:27;;;;;;;363.93;348.07;;;15.80;99.90;;;;;;6189505;23;20414;-83
2022/08/16 05:21:59;;;;;;;341.20;326.03;;;15.80;99.90;;;;;;6189877;23;21001;-84
2022/08/16 05:24:27;;;;;;;333.17;318.17;;;15.90;99.90;;;;;;6188927;23;20437;-83
2022/08/16 05:26:55;;;;;;;330.00;315.03;;;16.00;99.90;;;;;;6190280;23;20421;-84
2022/08/16 05:29:32;;;;;;;352.90;337.00;;;16.00;99.90;;;;;;6199972;23;20501;-84
2022/08/16 05:32:00;;;;;;;239.07;228.47;;;16.30;99.90;;;;;;6199046;23;20415;-84
2022/08/16 05:34:27;;;;;;;130.13;124.77;;;16.50;99.90;;;;;;6190804;23;20457;-83
2022/08/16 05:36:56;;;;;;;55.33;52.73;;;16.80;99.90;;;;;;6210240;23;20411;-79
2022/08/16 05:39:23;;;;;;;20.50;18.90;;;17.20;99.90;;;;;;6188185;23;20463;-82
2022/08/16 05:41:52;;;;;;;13.47;11.00;;;17.50;99.90;;;;;;6187142;23;20424;-81
2022/08/16 05:44:24;;;;;;;11.93;7.97;;;17.90;98.80;;;;;;6187544;23;20439;-81
2022/08/16 05:46:52;;;;;;;10.63;7.63;;;18.20;95.40;;;;;;6197362;23;20423;-81
2022/08/16 05:49:20;;;;;;;11.00;7.03;;;18.70;93.30;;;;;;6187296;23;20421;-81
2022/08/16 05:51:47;;;;;;;9.40;6.20;;;19.00;90.70;;;;;;6199450;23;20433;-82
2022/08/16 05:54:16;;;;;;;9.30;6.07;;;19.30;88.20;;;;;;6186453;23;20440;-80
2022/08/16 05:56:45;;;;;;;8.97;7.10;;;19.70;85.10;;;;;;6186311;23;20466;-82
2022/08/16 05:59:17;;;;;;;9.30;5.70;;;19.90;81.70;;;;;;6186919;23;20416;-81
2022/08/16 06:01:44;;;;;;;10.33;6.10;;;20.00;77.80;;;;;;6186640;23;20391;-81
2022/08/16 06:04:13;;;;;;;11.27;6.47;;;20.20;75.30;;;;;;6185210;23;20462;-81
2022/08/16 06:06:42;;;;;;;9.33;5.57;;;20.50;73.10;;;;;;6196468;23;20419;-81
2022/08/16 06:09:09;;;;;;;12.50;6.60;;;20.50;70.60;;;;;;6185555;23;20528;-80
2022/08/16 06:11:38;;;;;;;9.97;6.20;;;20.60;69.70;;;;;;6187521;23;20953;-82
2022/08/16 06:14:06;;;;;;;14.30;7.07;;;20.90;68.90;;;;;;6186727;23;20434;-81
2022/08/16 06:16:34;;;;;;;8.23;6.50;;;21.10;65.10;;;;;;6186313;23;20414;-81
2022/08/16 06:19:01;;;;;;;8.83;5.60;;;21.30;64.00;;;;;;6187535;23;20425;-81
2022/08/16 06:21:28;;;;;;;9.43;5.80;;;21.40;61.20;;;;;;6187251;23;20425;-81
2022/08/16 06:23:55;;;;;;;9.80;5.83;;;21.50;61.40;;;;;;6186357;23;20517;-80
2022/08/16 06:26:22;;;;;;;12.27;6.33;;;21.50;59.80;;;;;;6185992;23;20446;-81
2022/08/16 06:28:50;;;;;;;12.27;6.03;;;21.60;60.30;;;;;;6190471;23;20437;-81
2022/08/16 06:31:17;;;;;;;10.50;6.40;;;21.50;60.30;;;;;;6196587;23;20492;-80
2022/08/16 06:33:48;;;;;;;7.70;5.53;;;21.50;60.00;;;;;;6195753;23;20930;-81
2022/08/16 06:36:15;;;;;;;14.83;6.43;;;21.40;60.60;;;;;;6186423;23;20399;-80
2022/08/16 06:38:43;;;;;;;10.57;6.20;;;21.30;59.90;;;;;;6186874;23;20402;-81
2022/08/16 06:41:10;;;;;;;12.13;6.50;;;21.10;60.50;;;;;;6186645;23;20413;-81
2022/08/16 06:43:37;;;;;;;9.13;5.70;;;21.20;59.80;;;;;;6186173;23;20441;-81
2022/08/16 06:46:08;;;;;;;10.73;5.50;;;21.20;59.80;;;;;;6185864;23;20415;-81
2022/08/16 06:48:35;;;;;;;10.33;5.30;;;21.10;59.70;;;;;;6186502;23;20403;-81
2022/08/16 06:51:05;;;;;;;10.57;5.70;;;21.30;59.50;;;;;;6196346;23;20482;-81
2022/08/16 06:53:35;;;;;;;8.50;5.50;;;21.30;58.90;;;;;;6186058;23;20433;-81
2022/08/16 06:56:04;;;;;;;13.10;5.90;;;21.40;59.20;;;;;;6186265;23;20815;-81
2022/08/16 06:58:31;;;;;;;10.43;5.50;;;21.40;59.00;;;;;;6186441;23;20483;-80
2022/08/16 07:00:58;;;;;;;9.40;5.37;;;21.50;57.80;;;;;;6186685;23;21084;-82
2022/08/16 07:03:25;;;;;;;8.07;5.30;;;21.50;57.50;;;;;;6186309;23;20435;-82
2022/08/16 07:05:52;;;;;;;7.97;5.67;;;21.50;56.10;;;;;;6185870;23;20538;-82
2022/08/16 07:08:20;;;;;;;7.97;5.80;;;21.60;54.70;;;;;;6186345;23;20756;-84
2022/08/16 07:10:46;;;;;;;14.37;6.20;;;21.60;54.70;;;;;;6185256;23;20775;-83
2022/08/16 07:13:13;;;;;;;9.53;6.10;;;21.80;54.80;;;;;;6185389;23;20434;-82
2022/08/16 07:15:41;;;;;;;9.10;5.60;;;21.70;54.00;;;;;;6195047;23;20416;-82
2022/08/16 07:18:10;;;;;;;9.50;6.43;;;21.80;53.20;;;;;;6186145;23;20745;-83
2022/08/16 07:20:37;;;;;;;9.10;5.50;;;21.90;53.50;;;;;;6185075;23;20498;-83
2022/08/16 07:23:06;;;;;;;9.20;5.47;;;22.10;52.40;;;;;;6184735;23;20413;-83
2022/08/16 07:25:35;;;;;;;11.03;5.37;;;22.10;52.50;;;;;;6185462;23;20472;-82
2022/08/16 07:28:02;;;;;;;9.20;5.80;;;22.20;50.80;;;;;;6185013;23;20424;-82
2022/08/16 07:30:30;;;;;;;7.80;5.67;;;22.30;50.90;;;;;;6185344;23;20414;-83
2022/08/16 07:32:57;;;;;;;12.30;6.87;;;22.50;49.70;;;;;;6195731;23;20423;-82
2022/08/16 07:35:53;;;;;;;8.60;5.87;;;22.50;49.40;;;;;;6185234;23;20424;-82
2022/08/16 07:38:20;;;;;;;10.80;5.60;;;22.60;49.40;;;;;;6174662;23;20419;-82
2022/08/16 07:40:48;;;;;;;8.27;6.07;;;22.60;47.30;;;;;;6185400;23;20748;-83
2022/08/16 07:43:14;;;;;;;9.30;6.00;;;22.80;48.30;;;;;;6184705;23;20436;-83
2022/08/16 07:45:41;;;;;;;10.80;6.07;;;23.10;47.50;;;;;;6185012;23;20415;-83
2022/08/16 07:48:08;;;;;;;14.00;6.60;;;23.00;47.20;;;;;;6185581;23;20896;-82
2022/08/16 07:50:34;;;;;;;8.47;5.30;;;23.20;47.30;;;;;;6185308;23;20438;-82
2022/08/16 07:53:01;;;;;;;9.53;5.90;;;23.30;46.00;;;;;;6185415;23;20756;-83
2022/08/16 07:55:28;;;;;;;11.37;5.87;;;23.40;44.60;;;;;;6185232;23;20416;-83
2022/08/16 07:57:56;;;;;;;8.93;6.27;;;23.70;42.90;;;;;;6184977;23;20414;-83
2022/08/16 08:00:23;;;;;;;9.40;5.43;;;23.70;41.70;;;;;;6185009;23;20428;-82
2022/08/16 08:02:50;;;;;;;9.90;5.97;;;24.00;40.80;;;;;;6185795;23;20422;-82
2022/08/16 08:05:17;;;;;;;12.87;5.30;;;24.20;39.60;;;;;;6184473;23;20413;-83
2022/08/16 08:07:44;;;;;;;8.53;5.10;;;24.60;39.60;;;;;;6184970;23;20736;-83
2022/08/16 08:10:11;;;;;;;9.00;6.10;;;25.10;36.90;;;;;;6188117;23;20417;-83
2022/08/16 08:12:37;;;;;;;9.20;6.30;;;25.00;35.10;;;;;;6189212;23;20453;-85
2022/08/16 08:15:10;;;;;;;8.80;6.80;;;25.60;33.70;;;;;;6188971;23;20424;-84
2022/08/16 08:17:38;;;;;;;10.10;6.50;;;25.80;31.20;;;;;;6191085;23;20708;-85
2022/08/16 08:20:07;;;;;;;8.57;6.30;;;26.20;31.50;;;;;;6188936;23;20412;-83
2022/08/16 08:22:35;;;;;;;8.73;6.40;;;26.50;29.10;;;;;;6187388;23;20405;-84
2022/08/16 08:25:02;;;;;;;10.47;6.43;;;26.70;28.10;;;;;;6187764;23;20474;-82
2022/08/16 08:27:29;;;;;;;13.13;6.60;;;26.70;25.40;;;;;;6185172;23;20907;-83
2022/08/16 08:29:57;;;;;;;9.70;6.40;;;26.90;25.30;;;;;;6186452;23;20393;-83
2022/08/16 08:32:27;;;;;;;8.00;5.60;;;27.20;24.50;;;;;;6189491;23;20548;-83
2022/08/16 08:34:54;;;;;;;10.33;6.60;;;27.60;24.70;;;;;;6186336;23;20433;-83
2022/08/16 08:37:21;;;;;;;8.77;6.60;;;27.90;23.80;;;;;;6187556;23;20416;-83
2022/08/16 08:39:48;;;;;;;9.63;7.03;;;28.00;22.30;;;;;;6189972;23;20475;-84
2022/08/16 08:42:15;;;;;;;14.40;7.30;;;27.60;22.30;;;;;;6191290;23;20420;-83
2022/08/16 08:44:41;;;;;;;8.50;6.23;;;27.90;21.10;;;;;;6189263;23;20455;-85
2022/08/16 08:47:08;;;;;;;10.63;7.23;;;27.80;21.20;;;;;;6187732;23;20387;-83
2022/08/16 08:49:37;;;;;;;10.87;6.40;;;28.10;19.30;;;;;;6198674;23;20440;-83
2022/08/16 08:52:29;;;;;;;11.83;6.60;;;28.30;20.00;;;;;;6189001;23;20456;-83
2022/08/16 08:54:57;;;;;;;8.40;6.80;;;28.50;17.70;;;;;;6175555;23;20447;-84
2022/08/16 08:57:36;;;;;;;;;;;;;;;;;;;;;
2022/08/16 09:00:08;;;;;;;11.97;6.50;;;28.50;18.00;;;;;;6200279;23;20455;-83
2022/08/16 09:02:35;;;;;;;12.77;7.10;;;28.90;16.00;;;;;;6186667;23;20412;-83
2022/08/16 09:05:02;;;;;;;12.17;6.13;;;29.00;15.40;;;;;;6185584;23;20428;-83
2022/08/16 09:07:36;;;;;;;12.73;6.23;;;29.30;14.60;;;;;;6186177;23;20791;-85
2022/08/16 09:10:22;;;;;;;13.10;6.20;;;29.80;13.50;;;;;;6198462;23;20416;-85
2022/08/16 09:12:49;;;;;;;18.00;6.57;;;29.90;10.80;;;;;;6189920;23;20403;-85
2022/08/16 09:15:19;;;;;;;9.70;6.57;;;30.20;10.30;;;;;;6189424;23;20418;-83
2022/08/16 09:17:46;;;;;;;8.40;6.83;;;30.10;10.90;;;;;;6187536;23;20392;-83
2022/08/16 09:20:14;;;;;;;9.53;6.50;;;30.00;9.30;;;;;;6188768;23;20417;-83
2022/08/16 09:22:42;;;;;;;7.83;5.60;;;30.20;9.00;;;;;;6188501;23;20409;-83
2022/08/16 09:25:10;;;;;;;10.33;6.87;;;30.40;9.30;;;;;;6188686;23;20832;-83
2022/08/16 09:27:38;;;;;;;9.13;6.70;;;30.20;8.00;;;;;;6188073;23;20387;-83
2022/08/16 09:30:07;;;;;;;13.70;6.97;;;30.20;9.10;;;;;;6187891;23;20397;-83
2022/08/16 09:32:34;;;;;;;13.23;6.30;;;29.90;8.70;;;;;;6188048;23;20443;-83
2022/08/16 09:35:01;;;;;;;15.37;7.03;;;30.20;9.80;;;;;;6187090;23;20951;-83
2022/08/16 09:37:29;;;;;;;13.80;7.50;;;30.30;7.50;;;;;;6189060;23;20409;-84
2022/08/16 09:39:56;;;;;;;9.20;6.43;;;30.40;6.40;;;;;;6190951;23;20475;-84
2022/08/16 09:42:23;;;;;;;10.63;6.23;;;30.60;4.20;;;;;;6188149;23;20733;-85
2022/08/16 09:44:51;;;;;;;8.43;6.00;;;31.30;5.20;;;;;;6189242;23;20407;-83
2022/08/16 09:47:18;;;;;;;13.43;6.90;;;31.80;3.30;;;;;;6191025;23;20409;-84
2022/08/16 09:49:44;;;;;;;11.50;6.40;;;31.80;2.80;;;;;;6191673;23;20391;-85
2022/08/16 09:52:11;;;;;;;8.57;5.97;;;32.10;2.10;;;;;;6187039;23;20409;-84
2022/08/16 09:57:53;;;;;;;11.03;6.67;;;31.90;1.00;;;;;;6177827;23;20408;-82
2022/08/16 10:00:25;;;;;;;11.83;7.03;;;32.30;1.00;;;;;;6196906;23;20382;-81
2022/08/16 10:02:52;;;;;;;9.60;7.20;;;32.30;1.00;;;;;;6196916;23;20903;-81
2022/08/16 10:05:21;;;;;;;13.27;6.83;;;32.60;1.00;;;;;;6186059;23;20422;-81
2022/08/16 10:07:51;;;;;;;12.10;5.93;;;32.70;1.00;;;;;;6196213;23;20391;-81
2022/08/16 10:10:18;;;;;;;9.90;6.87;;;33.10;1.00;;;;;;6187904;23;20800;-81
2022/08/16 10:15:31;;;;;;;7.53;5.97;;;33.20;1.00;;;;;;6186854;23;20393;-81
2022/08/16 10:17:58;;;;;;;7.40;5.87;;;32.90;1.00;;;;;;6187675;23;20387;-82
2022/08/16 10:20:25;;;;;;;10.97;6.40;;;33.30;1.00;;;;;;6187546;23;20420;-81
2022/08/16 10:22:52;;;;;;;11.67;6.20;;;32.40;1.00;;;;;;6187242;23;20470;-82
2022/08/16 10:25:19;;;;;;;8.53;4.80;;;33.50;1.00;;;;;;6187534;23;20394;-82
2022/08/16 10:27:47;;;;;;;13.53;5.10;;;32.10;1.00;;;;;;6186846;23;20424;-81
2022/08/16 10:30:15;;;;;;;7.43;5.03;;;33.40;1.00;;;;;;6186935;23;20404;-81
2022/08/16 10:32:43;;;;;;;8.00;4.90;;;33.70;1.00;;;;;;6186571;23;20966;-81
2022/08/16 10:35:10;;;;;;;7.80;5.00;;;34.30;1.00;;;;;;6187381;23;20433;-82
2022/08/16 10:37:37;;;;;;;8.83;5.40;;;33.90;1.00;;;;;;6188761;23;20412;-82
2022/08/16 10:40:13;;;;;;;9.97;5.00;;;33.70;1.00;;;;;;6190045;23;20408;-82
2022/08/16 10:42:40;;;;;;;10.63;5.60;;;33.70;1.00;;;;;;6199387;23;20387;-82
2022/08/16 10:45:08;;;;;;;9.57;5.80;;;34.30;1.00;;;;;;6186952;23;20439;-82
2022/08/16 10:47:35;;;;;;;10.20;5.00;;;34.80;1.00;;;;;;6187189;23;20391;-81
2022/08/16 10:50:04;;;;;;;10.00;6.13;;;34.70;1.00;;;;;;6189766;23;20417;-83
2022/08/16 10:52:32;;;;;;;8.87;6.00;;;35.50;1.00;;;;;;6189403;23;20524;-82
2022/08/16 10:54:59;;;;;;;10.33;5.60;;;35.30;1.00;;;;;;6190249;23;20411;-82
2022/08/16 10:57:27;;;;;;;8.20;5.13;;;35.50;1.00;;;;;;6187955;23;20503;-81
2022/08/16 10:59:55;;;;;;;12.50;5.10;;;35.50;1.00;;;;;;6189718;23;20391;-85
2022/08/16 11:02:23;;;;;;;8.33;4.60;;;36.50;1.00;;;;;;6188264;23;20897;-82
2022/08/16 11:04:50;;;;;;;6.60;4.40;;;36.80;1.00;;;;;;6188954;23;20429;-83
2022/08/16 11:07:18;;;;;;;25.93;5.57;;;36.30;1.00;;;;;;6187081;23;20504;-81
2022/08/16 11:09:45;;;;;;;11.70;5.07;;;36.50;1.00;;;;;;6187628;23;20459;-82
2022/08/16 11:12:12;;;;;;;8.77;4.60;;;36.20;1.00;;;;;;6188950;23;20384;-82
2022/08/16 11:14:39;;;;;;;8.20;4.20;;;34.80;1.00;;;;;;6190944;23;20407;-82
2022/08/16 11:17:06;;;;;;;9.63;5.23;;;35.50;1.00;;;;;;6190723;23;20413;-82
2022/08/16 11:19:33;;;;;;;12.23;4.70;;;35.80;1.00;;;;;;6189245;23;20415;-85
2022/08/16 11:22:00;;;;;;;10.33;5.37;;;35.80;1.00;;;;;;6189591;23;20486;-85
2022/08/16 11:24:28;;;;;;;14.17;5.47;;;36.80;1.00;;;;;;6191779;23;20432;-85
2022/08/16 11:26:56;;;;;;;7.40;4.20;;;36.90;1.00;;;;;;6191784;23;20793;-85
2022/08/16 11:29:22;;;;;;;9.23;5.00;;;35.70;1.00;;;;;;6199046;23;20776;-85
2022/08/16 11:31:49;;;;;;;10.90;4.93;;;36.10;1.00;;;;;;6187541;23;20878;-85
2022/08/16 11:34:16;;;;;;;8.57;4.57;;;35.40;1.00;;;;;;6187732;23;20763;-86
2022/08/16 11:36:43;;;;;;;14.53;4.20;;;35.50;1.00;;;;;;6189163;23;20508;-85
2022/08/16 11:39:10;;;;;;;9.87;4.70;;;35.00;1.00;;;;;;6188238;23;20388;-85
2022/08/16 11:41:38;;;;;;;10.77;4.30;;;35.70;1.00;;;;;;6187222;23;20444;-85
2022/08/16 11:44:05;;;;;;;9.50;5.20;;;36.60;1.00;;;;;;6188949;23;20414;-86
2022/08/16 11:46:34;;;;;;;10.90;4.50;;;37.60;1.00;;;;;;6188702;23;20427;-83
2022/08/16 11:49:01;;;;;;;12.77;4.03;;;37.50;1.00;;;;;;6186649;23;20395;-85
2022/08/16 11:51:28;;;;;;;8.33;5.00;;;37.10;1.00;;;;;;6185183;23;20413;-85
2022/08/16 11:53:54;;;;;;;10.77;4.67;;;36.20;1.00;;;;;;6187413;23;20432;-85
2022/08/16 11:56:21;;;;;;;11.60;4.73;;;34.80;1.00;;;;;;6187721;23;20391;-84
2022/08/16 11:58:50;;;;;;;10.20;4.90;;;34.20;1.00;;;;;;6186877;23;20387;-84
2022/08/16 12:01:17;;;;;;;11.67;4.60;;;33.30;1.00;;;;;;6188272;23;20388;-84
2022/08/16 12:03:44;;;;;;;10.20;4.30;;;32.80;1.00;;;;;;6187823;23;20440;-85
2022/08/16 12:06:14;;;;;;;8.67;4.60;;;32.50;1.00;;;;;;6188709;23;20803;-85
2022/08/16 12:08:43;;;;;;;7.10;4.57;;;32.60;1.00;;;;;;6195473;23;20413;-85
2022/08/16 12:11:12;;;;;;;7.50;4.57;;;32.60;1.00;;;;;;6186445;23;20409;-85
2022/08/16 12:13:39;;;;;;;8.63;4.57;;;32.80;1.00;;;;;;6186726;23;20958;-85
2022/08/16 12:16:08;;;;;;;6.30;3.50;;;33.50;1.00;;;;;;6188433;23;20387;-84
2022/08/16 12:18:35;;;;;;;8.10;4.33;;;33.00;1.00;;;;;;6197918;23;20391;-85
2022/08/16 12:21:02;;;;;;;6.60;3.83;;;33.40;1.00;;;;;;6188207;23;20420;-85
2022/08/16 12:23:29;;;;;;;11.40;4.27;;;33.10;1.00;;;;;;6188041;23;20780;-85
2022/08/16 12:25:56;;;;;;;10.17;4.20;;;32.80;1.00;;;;;;6188203;23;20732;-85
2022/08/16 12:28:23;;;;;;;7.13;4.40;;;32.50;1.00;;;;;;6187574;23;20395;-84
2022/08/16 12:30:51;;;;;;;8.43;4.30;;;32.20;1.00;;;;;;6187906;23;20470;-85
2022/08/16 12:33:31;;;;;;;11.67;4.70;;;32.20;1.00;;;;;;6187927;23;20440;-85
2022/08/16 12:35:58;;;;;;;7.90;4.70;;;32.00;1.00;;;;;;6188722;23;20411;-85
2022/08/16 12:38:34;;;;;;;8.43;3.70;;;32.00;1.00;;;;;;6189967;23;20409;-85
2022/08/16 12:41:01;;;;;;;7.10;4.23;;;31.90;1.00;;;;;;6188404;23;20806;-85
2022/08/16 12:43:28;;;;;;;7.50;4.57;;;31.40;1.00;;;;;;6189866;23;20415;-85